Barona Rancheria, California
Current Conditions -  °F | °C
As of 10:53 PM on Wednesday 22 Oct 2014 (Local Time) from KPSP Reporting Station
Clear Clear  
Wind Chill: 77°   Ceiling: Unl
Heat Index: 77°   Visibility: 10mi
Dew Point: 28°   Wind: 8mph
Humidity: 17%   Direction: 320°NW
Pressure: 29.96"   Gusts: NA
Location:  33.8563°N, 116.571°W
Report Text: KPSP 230553Z 32007KT 10SM CLR 25/M02 A2996 RMK AO2 SLP142 T02501022 10339 20244 51012 $
Loading
Personal Weather Stations






























Interactive Weather Map
Tropical Storm Tracking
New forecast layout! Learn more

10-Day Weather Forecast

Advertisements
Track Severe Weather on mobile